sensor_id;sensor_type;location;lat;lon;timestamp;pressure;altitude;pressure_sealevel;temperature;humidity
8318;BME280;4196;48.926;8.964;2023-11-19T00:00:09;98995.41;;;7.10;100.00
8318;BME280;4196;48.926;8.964;2023-11-19T00:02:58;98991.13;;;7.14;100.00
8318;BME280;4196;48.926;8.964;2023-11-19T00:05:45;98984.19;;;7.04;100.00
8318;BME280;4196;48.926;8.964;2023-11-19T00:08:31;98985.78;;;6.94;100.00
8318;BME280;4196;48.926;8.964;2023-11-19T00:11:18;98984.97;;;6.99;100.00
8318;BME280;4196;48.926;8.964;2023-11-19T00:14:04;98978.06;;;6.95;100.00
8318;BME280;4196;48.926;8.964;2023-11-19T00:16:54;98973.72;;;6.88;100.00
8318;BME280;4196;48.926;8.964;2023-11-19T00:19:40;98972.94;;;6.92;100.00
8318;BME280;4196;48.926;8.964;2023-11-19T00:22:27;98981.44;;;6.88;100.00
8318;BME280;4196;48.926;8.964;2023-11-19T00:25:14;98952.22;;;6.82;100.00
8318;BME280;4196;48.926;8.964;2023-11-19T00:28:01;98976.34;;;6.93;100.00
8318;BME280;4196;48.926;8.964;2023-11-19T00:30:48;98972.03;;;6.90;100.00
8318;BME280;4196;48.926;8.964;2023-11-19T00:33:35;98956.56;;;6.87;100.00
8318;BME280;4196;48.926;8.964;2023-11-19T00:36:35;98966.03;;;6.91;100.00
8318;BME280;4196;48.926;8.964;2023-11-19T00:39:22;98955.81;;;6.99;100.00
8318;BME280;4196;48.926;8.964;2023-11-19T00:42:09;98942.03;;;6.94;100.00
8318;BME280;4196;48.926;8.964;2023-11-19T00:44:57;98944.72;;;7.05;100.00
8318;BME280;4196;48.926;8.964;2023-11-19T00:47:44;98932.63;;;6.97;100.00
8318;BME280;4196;48.926;8.964;2023-11-19T00:50:31;98937.81;;;7.00;100.00
8318;BME280;4196;48.926;8.964;2023-11-19T00:53:21;98956.00;;;7.20;100.00
8318;BME280;4196;48.926;8.964;2023-11-19T00:56:08;98924.19;;;7.14;100.00
8318;BME280;4196;48.926;8.964;2023-11-19T00:58:55;98944.09;;;7.32;100.00
8318;BME280;4196;48.926;8.964;2023-11-19T01:01:42;98946.69;;;7.35;100.00
8318;BME280;4196;48.926;8.964;2023-11-19T01:04:35;98943.28;;;7.36;100.00
8318;BME280;4196;48.926;8.964;2023-11-19T01:07:22;98927.72;;;7.25;100.00
8318;BME280;4196;48.926;8.964;2023-11-19T01:10:10;98924.25;;;7.20;100.00
8318;BME280;4196;48.926;8.964;2023-11-19T01:12:57;98930.22;;;7.14;100.00
8318;BME280;4196;48.926;8.964;2023-11-19T01:15:45;98924.25;;;7.20;100.00
8318;BME280;4196;48.926;8.964;2023-11-19T01:18:31;98937.06;;;7.14;100.00
8318;BME280;4196;48.926;8.964;2023-11-19T01:21:18;98932.75;;;7.10;100.00
8318;BME280;4196;48.926;8.964;2023-11-19T01:24:06;98928.41;;;7.04;100.00
8318;BME280;4196;48.926;8.964;2023-11-19T01:26:55;98935.34;;;7.11;100.00
8318;BME280;4196;48.926;8.964;2023-11-19T01:29:43;98908.63;;;6.98;100.00
8318;BME280;4196;48.926;8.964;2023-11-19T01:32:30;98929.34;;;7.11;100.00
8318;BME280;4196;48.926;8.964;2023-11-19T01:35:16;98918.97;;;7.05;100.00
8318;BME280;4196;48.926;8.964;2023-11-19T01:38:03;98925.88;;;7.09;100.00
8318;BME280;4196;48.926;8.964;2023-11-19T01:40:49;98925.06;;;7.13;100.00
8318;BME280;4196;48.926;8.964;2023-11-19T01:43:37;98928.44;;;7.10;100.00
8318;BME280;4196;48.926;8.964;2023-11-19T01:46:24;98905.25;;;7.06;100.00
8318;BME280;4196;48.926;8.964;2023-11-19T01:49:13;98924.19;;;7.14;100.00
8318;BME280;4196;48.926;8.964;2023-11-19T01:52:00;98917.38;;;7.19;100.00
8318;BME280;4196;48.926;8.964;2023-11-19T01:54:46;98927.75;;;7.28;100.00
8318;BME280;4196;48.926;8.964;2023-11-19T01:57:33;98923.50;;;7.30;100.00
8318;BME280;4196;48.926;8.964;2023-11-19T02:00:21;98921.69;;;7.21;100.00
8318;BME280;4196;48.926;8.964;2023-11-19T02:03:08;98915.69;;;7.24;100.00
8318;BME280;4196;48.926;8.964;2023-11-19T02:05:55;98912.31;;;7.26;100.00
8318;BME280;4196;48.926;8.964;2023-11-19T02:08:42;98891.56;;;7.13;100.00
8318;BME280;4196;48.926;8.964;2023-11-19T02:11:30;98909.75;;;7.30;100.00
8318;BME280;4196;48.926;8.964;2023-11-19T02:14:17;98908.06;;;7.33;100.00
8318;BME280;4196;48.926;8.964;2023-11-19T02:17:04;98901.16;;;7.31;100.00
8318;BME280;4196;48.926;8.964;2023-11-19T02:19:51;98902.03;;;7.31;100.00
8318;BME280;4196;48.926;8.964;2023-11-19T02:22:37;98910.53;;;7.21;100.00
8318;BME280;4196;48.926;8.964;2023-11-19T02:25:30;98903.66;;;7.20;100.00
8318;BME280;4196;48.926;8.964;2023-11-19T02:28:19;98894.97;;;7.10;100.00
8318;BME280;4196;48.926;8.964;2023-11-19T02:31:05;98908.78;;;7.17;100.00
8318;BME280;4196;48.926;8.964;2023-11-19T02:33:56;98895.88;;;7.14;100.00
8318;BME280;4196;48.926;8.964;2023-11-19T02:36:42;98897.59;;;7.13;100.00
8318;BME280;4196;48.926;8.964;2023-11-19T02:39:29;98908.06;;;7.33;100.00
8318;BME280;4196;48.926;8.964;2023-11-19T02:42:15;98903.75;;;7.32;100.00
8318;BME280;4196;48.926;8.964;2023-11-19T02:45:02;98905.47;;;7.30;100.00
8318;BME280;4196;48.926;8.964;2023-11-19T02:47:53;98910.56;;;7.24;100.00
8318;BME280;4196;48.926;8.964;2023-11-19T02:50:42;98918.22;;;7.18;100.00
8318;BME280;4196;48.926;8.964;2023-11-19T02:53:30;98903.72;;;7.26;100.00
8318;BME280;4196;48.926;8.964;2023-11-19T02:56:16;98908.88;;;7.26;100.00
8318;BME280;4196;48.926;8.964;2023-11-19T02:59:12;98917.41;;;7.25;100.00
8318;BME280;4196;48.926;8.964;2023-11-19T03:02:13;98910.50;;;7.18;100.00
8318;BME280;4196;48.926;8.964;2023-11-19T03:05:02;98910.50;;;7.18;100.00
8318;BME280;4196;48.926;8.964;2023-11-19T03:07:50;98908.91;;;7.32;100.00
8318;BME280;4196;48.926;8.964;2023-11-19T03:10:36;98913.25;;;7.39;100.00
8318;BME280;4196;48.926;8.964;2023-11-19T03:13:22;98908.97;;;7.41;100.00
8318;BME280;4196;48.926;8.964;2023-11-19T03:16:09;98907.28;;;7.45;100.00
8318;BME280;4196;48.926;8.964;2023-11-19T03:18:58;98894.34;;;7.39;100.00
8318;BME280;4196;48.926;8.964;2023-11-19T03:21:46;98881.47;;;7.39;100.00
8318;BME280;4196;48.926;8.964;2023-11-19T03:24:34;98883.94;;;7.25;100.00
8318;BME280;4196;48.926;8.964;2023-11-19T03:27:21;98895.13;;;7.27;100.00
8318;BME280;4196;48.926;8.964;2023-11-19T03:30:09;98887.41;;;7.29;100.00
8318;BME280;4196;48.926;8.964;2023-11-19T03:32:58;98865.91;;;7.23;100.00
8318;BME280;4196;48.926;8.964;2023-11-19T03:35:47;98888.28;;;7.26;100.00
8318;BME280;4196;48.926;8.964;2023-11-19T03:38:34;98812.41;;;6.84;100.00
8318;BME280;4196;48.926;8.964;2023-11-19T03:41:20;98880.63;;;7.40;100.00
8318;BME280;4196;48.926;8.964;2023-11-19T03:44:07;98888.44;;;7.54;100.00
8318;BME280;4196;48.926;8.964;2023-11-19T03:46:53;98884.09;;;7.43;100.00
8318;BME280;4196;48.926;8.964;2023-11-19T03:49:40;98853.97;;;7.33;100.00
8318;BME280;4196;48.926;8.964;2023-11-19T03:52:26;98859.22;;;7.48;100.00
8318;BME280;4196;48.926;8.964;2023-11-19T03:55:14;98855.72;;;7.37;100.00
8318;BME280;4196;48.926;8.964;2023-11-19T03:58:00;98855.78;;;7.49;100.00
8318;BME280;4196;48.926;8.964;2023-11-19T04:00:47;98847.19;;;7.46;100.00
8318;BME280;4196;48.926;8.964;2023-11-19T04:03:34;98854.06;;;7.45;100.00
8318;BME280;4196;48.926;8.964;2023-11-19T04:06:20;98860.09;;;7.50;100.00
8318;BME280;4196;48.926;8.964;2023-11-19T04:09:07;98860.91;;;7.43;100.00
8318;BME280;4196;48.926;8.964;2023-11-19T04:11:54;98841.94;;;7.29;100.00
8318;BME280;4196;48.926;8.964;2023-11-19T04:14:40;98859.22;;;7.45;100.00
8318;BME280;4196;48.926;8.964;2023-11-19T04:17:26;98854.97;;;7.58;100.00
8318;BME280;4196;48.926;8.964;2023-11-19T04:20:14;98861.03;;;7.59;100.00
8318;BME280;4196;48.926;8.964;2023-11-19T04:23:01;98855.91;;;7.68;100.00
8318;BME280;4196;48.926;8.964;2023-11-19T04:25:47;98853.34;;;7.72;100.00
8318;BME280;4196;48.926;8.964;2023-11-19T04:28:34;98852.56;;;7.81;100.00
8318;BME280;4196;48.926;8.964;2023-11-19T04:31:20;98847.41;;;7.87;100.00
8318;BME280;4196;48.926;8.964;2023-11-19T04:34:07;98843.94;;;7.84;100.00
8318;BME280;4196;48.926;8.964;2023-11-19T04:36:53;98844.81;;;7.83;100.00
8318;BME280;4196;48.926;8.964;2023-11-19T04:39:40;98815.56;;;7.71;100.00
8318;BME280;4196;48.926;8.964;2023-11-19T04:42:27;98832.00;;;7.96;100.00
8318;BME280;4196;48.926;8.964;2023-11-19T04:45:14;98843.16;;;7.98;100.00
8318;BME280;4196;48.926;8.964;2023-11-19T04:48:00;98823.50;;;8.31;100.00
8318;BME280;4196;48.926;8.964;2023-11-19T04:50:47;98845.16;;;9.11;100.00
8318;BME280;4196;48.926;8.964;2023-11-19T04:53:33;98845.09;;;9.50;100.00
8318;BME280;4196;48.926;8.964;2023-11-19T04:56:19;98844.09;;;10.03;100.00
8318;BME280;4196;48.926;8.964;2023-11-19T04:59:07;98845.75;;;10.31;100.00
8318;BME280;4196;48.926;8.964;2023-11-19T05:01:55;98844.78;;;10.46;100.00
8318;BME280;4196;48.926;8.964;2023-11-19T05:04:44;98836.09;;;10.58;100.00
8318;BME280;4196;48.926;8.964;2023-11-19T05:07:33;98841.06;;;10.85;100.00
8318;BME280;4196;48.926;8.964;2023-11-19T05:10:20;98853.03;;;11.05;100.00
8318;BME280;4196;48.926;8.964;2023-11-19T05:13:07;98845.94;;;11.22;100.00
8318;BME280;4196;48.926;8.964;2023-11-19T05:15:54;98852.06;;;11.15;100.00
8318;BME280;4196;48.926;8.964;2023-11-19T05:18:41;98845.84;;;11.33;100.00
8318;BME280;4196;48.926;8.964;2023-11-19T05:21:29;98851.00;;;11.39;100.00
8318;BME280;4196;48.926;8.964;2023-11-19T05:24:16;98843.16;;;11.47;100.00
8318;BME280;4196;48.926;8.964;2023-11-19T05:27:02;98766.59;;;11.10;100.00
8318;BME280;4196;48.926;8.964;2023-11-19T05:29:48;98831.88;;;11.51;100.00
8318;BME280;4196;48.926;8.964;2023-11-19T05:32:35;98826.63;;;11.57;100.00
8318;BME280;4196;48.926;8.964;2023-11-19T05:35:21;98831.03;;;11.49;100.00
8318;BME280;4196;48.926;8.964;2023-11-19T05:38:08;98831.88;;;11.48;100.00
8318;BME280;4196;48.926;8.964;2023-11-19T05:40:55;98807.00;;;11.31;100.00
8318;BME280;4196;48.926;8.964;2023-11-19T05:43:42;98816.41;;;11.40;100.00
8318;BME280;4196;48.926;8.964;2023-11-19T05:46:28;98811.34;;;11.31;100.00
8318;BME280;4196;48.926;8.964;2023-11-19T05:49:15;98801.75;;;11.37;100.00
8318;BME280;4196;48.926;8.964;2023-11-19T05:52:02;98806.06;;;11.37;100.00
8318;BME280;4196;48.926;8.964;2023-11-19T05:54:50;98818.19;;;11.35;100.00
8318;BME280;4196;48.926;8.964;2023-11-19T05:57:39;98824.19;;;11.42;100.00
8318;BME280;4196;48.926;8.964;2023-11-19T06:00:29;98824.25;;;11.35;100.00
8318;BME280;4196;48.926;8.964;2023-11-19T06:03:16;98832.81;;;11.41;100.00
8318;BME280;4196;48.926;8.964;2023-11-19T06:06:03;98828.44;;;11.49;100.00
8318;BME280;4196;48.926;8.964;2023-11-19T06:08:51;98836.09;;;11.61;100.00
8318;BME280;4196;48.926;8.964;2023-11-19T06:11:38;98827.56;;;11.50;100.00
8318;BME280;4196;48.926;8.964;2023-11-19T06:14:24;98819.66;;;11.59;100.00
8318;BME280;4196;48.926;8.964;2023-11-19T06:17:10;98823.13;;;11.59;100.00
8318;BME280;4196;48.926;8.964;2023-11-19T06:19:57;98836.06;;;11.63;100.00
8318;BME280;4196;48.926;8.964;2023-11-19T06:22:43;98827.44;;;11.62;100.00
8318;BME280;4196;48.926;8.964;2023-11-19T06:25:32;98827.38;;;11.68;100.00
8318;BME280;4196;48.926;8.964;2023-11-19T06:28:19;98824.13;;;11.45;100.00
8318;BME280;4196;48.926;8.964;2023-11-19T06:31:05;98843.97;;;11.50;100.00
8318;BME280;4196;48.926;8.964;2023-11-19T06:33:52;98837.78;;;11.62;100.00
8318;BME280;4196;48.926;8.964;2023-11-19T06:36:39;98841.97;;;11.77;100.00
8318;BME280;4196;48.926;8.964;2023-11-19T06:39:25;98846.41;;;11.67;100.00
8318;BME280;4196;48.926;8.964;2023-11-19T06:42:11;98846.41;;;11.67;100.00
8318;BME280;4196;48.926;8.964;2023-11-19T06:44:58;98843.81;;;11.67;100.00
8318;BME280;4196;48.926;8.964;2023-11-19T06:47:45;98830.88;;;11.64;100.00
8318;BME280;4196;48.926;8.964;2023-11-19T06:50:32;98835.06;;;11.74;100.00
8318;BME280;4196;48.926;8.964;2023-11-19T06:53:18;98836.84;;;11.69;100.00
8318;BME280;4196;48.926;8.964;2023-11-19T06:56:16;98832.53;;;11.71;100.00
8318;BME280;4196;48.926;8.964;2023-11-19T06:59:03;98822.97;;;11.73;100.00
8318;BME280;4196;48.926;8.964;2023-11-19T07:01:49;98844.69;;;11.63;100.00
8318;BME280;4196;48.926;8.964;2023-11-19T07:04:36;98873.19;;;11.68;100.00
8318;BME280;4196;48.926;8.964;2023-11-19T07:07:23;98870.63;;;11.63;100.00
8318;BME280;4196;48.926;8.964;2023-11-19T07:10:09;98874.13;;;11.59;100.00
8318;BME280;4196;48.926;8.964;2023-11-19T07:12:56;98874.03;;;11.70;100.00
8318;BME280;4196;48.926;8.964;2023-11-19T07:15:44;98873.28;;;11.58;100.00
8318;BME280;4196;48.926;8.964;2023-11-19T07:18:30;98862.91;;;11.58;100.00
8318;BME280;4196;48.926;8.964;2023-11-19T07:21:17;98869.84;;;11.56;100.00
8318;BME280;4196;48.926;8.964;2023-11-19T07:24:04;98866.31;;;11.62;100.00
8318;BME280;4196;48.926;8.964;2023-11-19T07:26:51;98873.31;;;11.57;100.00
8318;BME280;4196;48.926;8.964;2023-11-19T07:29:38;98867.34;;;11.49;100.00
8318;BME280;4196;48.926;8.964;2023-11-19T07:32:24;98870.91;;;11.35;100.00
8318;BME280;4196;48.926;8.964;2023-11-19T07:35:11;98866.66;;;11.28;100.00
8318;BME280;4196;48.926;8.964;2023-11-19T07:37:58;98877.81;;;11.36;100.00
8318;BME280;4196;48.926;8.964;2023-11-19T07:40:44;98883.88;;;11.32;100.00
8318;BME280;4196;48.926;8.964;2023-11-19T07:43:45;98872.78;;;11.15;100.00
8318;BME280;4196;48.926;8.964;2023-11-19T07:46:35;98900.34;;;11.25;100.00
8318;BME280;4196;48.926;8.964;2023-11-19T07:49:22;98884.00;;;11.20;100.00
8318;BME280;4196;48.926;8.964;2023-11-19T07:52:09;98889.19;;;11.16;100.00
8318;BME280;4196;48.926;8.964;2023-11-19T07:54:58;98900.31;;;11.31;100.00
8318;BME280;4196;48.926;8.964;2023-11-19T07:57:45;98898.44;;;11.49;100.00
8318;BME280;4196;48.926;8.964;2023-11-19T08:00:31;98901.69;;;11.69;100.00
8318;BME280;4196;48.926;8.964;2023-11-19T08:03:18;98905.97;;;11.75;100.00
8318;BME280;4196;48.926;8.964;2023-11-19T08:06:08;98895.38;;;12.01;100.00
8318;BME280;4196;48.926;8.964;2023-11-19T08:08:55;98901.34;;;12.06;100.00
8318;BME280;4196;48.926;8.964;2023-11-19T08:11:42;98907.19;;;12.25;100.00
8318;BME280;4196;48.926;8.964;2023-11-19T08:14:28;98904.53;;;12.29;100.00
8318;BME280;4196;48.926;8.964;2023-11-19T08:17:14;98902.69;;;12.39;100.00
8318;BME280;4196;48.926;8.964;2023-11-19T08:20:01;98909.28;;;12.65;100.00
8318;BME280;4196;48.926;8.964;2023-11-19T08:22:47;98906.41;;;12.85;100.00
8318;BME280;4196;48.926;8.964;2023-11-19T08:25:34;98908.81;;;13.00;100.00
8318;BME280;4196;48.926;8.964;2023-11-19T08:28:21;98914.69;;;13.10;100.00
8318;BME280;4196;48.926;8.964;2023-11-19T08:31:07;98915.63;;;13.07;100.00
8318;BME280;4196;48.926;8.964;2023-11-19T08:33:54;98919.84;;;13.13;100.00
8318;BME280;4196;48.926;8.964;2023-11-19T08:36:40;98913.84;;;13.09;100.00
8318;BME280;4196;48.926;8.964;2023-11-19T08:39:27;98921.69;;;13.08;100.00
8318;BME280;4196;48.926;8.964;2023-11-19T08:42:13;98921.59;;;13.12;100.00
8318;BME280;4196;48.926;8.964;2023-11-19T08:45:00;98911.94;;;13.23;100.00
8318;BME280;4196;48.926;8.964;2023-11-19T08:47:46;98904.06;;;13.28;100.00
8318;BME280;4196;48.926;8.964;2023-11-19T08:50:33;98893.75;;;13.20;100.00
8318;BME280;4196;48.926;8.964;2023-11-19T08:53:20;98894.72;;;13.13;100.00
8318;BME280;4196;48.926;8.964;2023-11-19T08:56:07;98893.06;;;13.09;100.00
8318;BME280;4196;48.926;8.964;2023-11-19T08:58:54;98904.22;;;13.16;100.00
8318;BME280;4196;48.926;8.964;2023-11-19T09:01:40;98904.91;;;13.28;100.00
8318;BME280;4196;48.926;8.964;2023-11-19T09:04:27;98897.91;;;13.34;100.00
8318;BME280;4196;48.926;8.964;2023-11-19T09:07:14;98895.75;;;13.59;100.00
8318;BME280;4196;48.926;8.964;2023-11-19T09:10:00;98901.88;;;13.54;100.00
8318;BME280;4196;48.926;8.964;2023-11-19T09:12:47;98905.22;;;13.61;100.00
8318;BME280;4196;48.926;8.964;2023-11-19T09:15:33;98907.81;;;13.61;100.00
8318;BME280;4196;48.926;8.964;2023-11-19T09:18:20;98911.09;;;13.72;100.00
8318;BME280;4196;48.926;8.964;2023-11-19T09:21:06;98908.41;;;13.78;100.00
8318;BME280;4196;48.926;8.964;2023-11-19T09:23:53;98917.91;;;13.81;100.00
8318;BME280;4196;48.926;8.964;2023-11-19T09:26:40;98915.50;;;13.70;100.00
8318;BME280;4196;48.926;8.964;2023-11-19T09:29:31;98914.88;;;13.56;100.00
8318;BME280;4196;48.926;8.964;2023-11-19T09:32:19;98917.66;;;13.45;100.00
8318;BME280;4196;48.926;8.964;2023-11-19T09:35:06;98897.06;;;13.32;100.00
8318;BME280;4196;48.926;8.964;2023-11-19T09:37:53;98910.00;;;13.35;100.00
8318;BME280;4196;48.926;8.964;2023-11-19T09:40:40;98892.06;;;13.16;100.00
8318;BME280;4196;48.926;8.964;2023-11-19T09:43:27;98917.81;;;13.35;100.00
8318;BME280;4196;48.926;8.964;2023-11-19T09:46:15;98914.38;;;13.33;100.00
8318;BME280;4196;48.926;8.964;2023-11-19T09:49:02;98910.06;;;13.32;100.00
8318;BME280;4196;48.926;8.964;2023-11-19T09:51:50;98897.91;;;13.34;100.00
8318;BME280;4196;48.926;8.964;2023-11-19T09:54:36;98886.53;;;13.39;100.00
8318;BME280;4196;48.926;8.964;2023-11-19T09:57:23;98883.66;;;13.56;100.00
8318;BME280;4196;48.926;8.964;2023-11-19T10:00:13;98898.88;;;13.77;100.00
8318;BME280;4196;48.926;8.964;2023-11-19T10:03:02;98898.13;;;13.71;100.00
8318;BME280;4196;48.926;8.964;2023-11-19T10:05:49;98916.03;;;13.88;100.00
8318;BME280;4196;48.926;8.964;2023-11-19T10:08:39;98884.97;;;13.78;100.00
8318;BME280;4196;48.926;8.964;2023-11-19T10:11:26;98896.03;;;13.90;100.00
8318;BME280;4196;48.926;8.964;2023-11-19T10:14:14;98881.19;;;13.95;100.00
8318;BME280;4196;48.926;8.964;2023-11-19T10:17:01;98873.47;;;13.90;100.00
8318;BME280;4196;48.926;8.964;2023-11-19T10:19:50;98896.59;;;14.07;100.00
8318;BME280;4196;48.926;8.964;2023-11-19T10:22:37;98892.19;;;14.11;100.00
8318;BME280;4196;48.926;8.964;2023-11-19T10:25:25;98883.53;;;14.10;100.00
8318;BME280;4196;48.926;8.964;2023-11-19T10:28:15;98869.75;;;14.04;100.00
8318;BME280;4196;48.926;8.964;2023-11-19T10:31:05;98870.25;;;14.22;99.54
8318;BME280;4196;48.926;8.964;2023-11-19T10:33:52;98862.44;;;14.21;98.47
8318;BME280;4196;48.926;8.964;2023-11-19T10:36:39;98864.25;;;14.19;97.23
8318;BME280;4196;48.926;8.964;2023-11-19T10:39:53;98871.84;;;14.28;97.90
8318;BME280;4196;48.926;8.964;2023-11-19T10:42:41;98862.38;;;14.25;96.67
8318;BME280;4196;48.926;8.964;2023-11-19T10:45:27;98869.91;;;14.38;93.15
8318;BME280;4196;48.926;8.964;2023-11-19T10:48:14;98867.28;;;14.39;90.83
8318;BME280;4196;48.926;8.964;2023-11-19T10:51:01;98888.19;;;14.36;90.60
8318;BME280;4196;48.926;8.964;2023-11-19T10:53:53;98876.81;;;14.40;89.96
8318;BME280;4196;48.926;8.964;2023-11-19T10:56:43;98884.47;;;14.49;91.55
8318;BME280;4196;48.926;8.964;2023-11-19T10:59:31;98889.66;;;14.49;90.86
8318;BME280;4196;48.926;8.964;2023-11-19T11:02:22;98874.91;;;14.47;88.94
8318;BME280;4196;48.926;8.964;2023-11-19T11:05:12;98888.84;;;14.47;89.29
8318;BME280;4196;48.926;8.964;2023-11-19T11:08:00;98862.94;;;14.40;88.04
8318;BME280;4196;48.926;8.964;2023-11-19T11:10:56;98873.19;;;14.47;89.06
8318;BME280;4196;48.926;8.964;2023-11-19T11:13:44;98860.13;;;14.49;91.38
8318;BME280;4196;48.926;8.964;2023-11-19T11:16:32;98859.81;;;14.64;89.44
8318;BME280;4196;48.926;8.964;2023-11-19T11:19:19;98863.19;;;14.69;88.40
8318;BME280;4196;48.926;8.964;2023-11-19T11:22:06;98851.94;;;14.67;87.39
8318;BME280;4196;48.926;8.964;2023-11-19T11:28:13;98857.19;;;14.66;88.39
8318;BME280;4196;48.926;8.964;2023-11-19T11:31:13;98857.16;;;14.67;89.03
8318;BME280;4196;48.926;8.964;2023-11-19T11:37:25;98846.78;;;14.64;89.08
8318;BME280;4196;48.926;8.964;2023-11-19T11:40:17;98854.59;;;14.66;87.94
8318;BME280;4196;48.926;8.964;2023-11-19T11:49:25;98845.38;;;14.51;86.84
8318;BME280;4196;48.926;8.964;2023-11-19T11:52:11;98841.50;;;14.67;87.16
8318;BME280;4196;48.926;8.964;2023-11-19T11:55:04;98819.81;;;14.67;87.25
8318;BME280;4196;48.926;8.964;2023-11-19T11:57:55;98840.31;;;14.82;86.37
8318;BME280;4196;48.926;8.964;2023-11-19T12:00:41;98841.09;;;14.86;86.06
8318;BME280;4196;48.926;8.964;2023-11-19T12:03:29;98837.50;;;14.90;85.91
8318;BME280;4196;48.926;8.964;2023-11-19T12:06:20;98845.25;;;14.93;84.08
8318;BME280;4196;48.926;8.964;2023-11-19T12:09:07;98853.03;;;14.96;85.04
8318;BME280;4196;48.926;8.964;2023-11-19T12:12:07;98853.94;;;14.93;85.20
8318;BME280;4196;48.926;8.964;2023-11-19T12:15:05;98839.31;;;14.88;85.42
8318;BME280;4196;48.926;8.964;2023-11-19T12:17:53;98834.16;;;14.85;83.60
8318;BME280;4196;48.926;8.964;2023-11-19T12:20:39;98844.53;;;14.88;79.95
8318;BME280;4196;48.926;8.964;2023-11-19T12:23:29;98847.88;;;14.93;78.61
8318;BME280;4196;48.926;8.964;2023-11-19T12:26:37;98843.44;;;14.96;78.00
8318;BME280;4196;48.926;8.964;2023-11-19T12:29:24;98826.03;;;14.97;75.67
8318;BME280;4196;48.926;8.964;2023-11-19T12:32:10;98796.00;;;14.82;76.52
8318;BME280;4196;48.926;8.964;2023-11-19T12:35:01;98809.75;;;14.89;77.61
8318;BME280;4196;48.926;8.964;2023-11-19T12:37:48;98808.03;;;14.88;76.52
8318;BME280;4196;48.926;8.964;2023-11-19T12:40:35;98816.00;;;14.82;76.56
8318;BME280;4196;48.926;8.964;2023-11-19T12:43:22;98815.69;;;14.94;77.98
8318;BME280;4196;48.926;8.964;2023-11-19T12:46:22;98819.00;;;15.01;75.60
8318;BME280;4196;48.926;8.964;2023-11-19T12:49:11;98820.13;;;14.90;76.27
8318;BME280;4196;48.926;8.964;2023-11-19T12:51:57;98828.66;;;14.97;76.43
8318;BME280;4196;48.926;8.964;2023-11-19T12:54:44;98799.25;;;14.92;74.94
8318;BME280;4196;48.926;8.964;2023-11-19T12:57:41;98819.50;;;14.79;76.13
8318;BME280;4196;48.926;8.964;2023-11-19T13:00:28;98821.41;;;14.72;77.31
8318;BME280;4196;48.926;8.964;2023-11-19T13:03:29;98831.94;;;14.68;76.66
8318;BME280;4196;48.926;8.964;2023-11-19T13:06:16;98808.06;;;14.47;77.26
8318;BME280;4196;48.926;8.964;2023-11-19T13:09:03;98829.72;;;14.51;77.98
8318;BME280;4196;48.926;8.964;2023-11-19T13:11:50;98822.44;;;14.65;76.15
8318;BME280;4196;48.926;8.964;2023-11-19T13:14:37;98814.41;;;14.74;74.65
8318;BME280;4196;48.926;8.964;2023-11-19T13:17:29;98799.44;;;14.83;72.95
8318;BME280;4196;48.926;8.964;2023-11-19T13:20:15;98788.94;;;14.86;72.18
8318;BME280;4196;48.926;8.964;2023-11-19T13:23:04;98790.59;;;14.90;72.76
8318;BME280;4196;48.926;8.964;2023-11-19T13:25:51;98790.50;;;14.93;70.75
8318;BME280;4196;48.926;8.964;2023-11-19T13:28:38;98798.28;;;14.96;71.67
8318;BME280;4196;48.926;8.964;2023-11-19T13:31:26;98800.81;;;14.97;71.19
8318;BME280;4196;48.926;8.964;2023-11-19T13:34:12;98797.28;;;15.00;71.37
8318;BME280;4196;48.926;8.964;2023-11-19T13:36:59;98802.44;;;15.03;69.94
8318;BME280;4196;48.926;8.964;2023-11-19T13:39:46;98795.28;;;15.11;69.50
8318;BME280;4196;48.926;8.964;2023-11-19T13:42:32;98791.94;;;15.06;68.67
8318;BME280;4196;48.926;8.964;2023-11-19T13:45:19;98794.69;;;15.00;69.26
8318;BME280;4196;48.926;8.964;2023-11-19T13:48:07;98778.38;;;14.92;70.77
8318;BME280;4196;48.926;8.964;2023-11-19T13:50:53;98785.22;;;14.96;70.64
8318;BME280;4196;48.926;8.964;2023-11-19T13:53:40;98780.22;;;14.87;71.45
8318;BME280;4196;48.926;8.964;2023-11-19T13:56:29;98776.81;;;14.85;72.71
8318;BME280;4196;48.926;8.964;2023-11-19T13:59:16;98780.41;;;14.79;72.67
8318;BME280;4196;48.926;8.964;2023-11-19T14:02:02;98783.81;;;14.83;71.58
8318;BME280;4196;48.926;8.964;2023-11-19T14:04:49;98795.44;;;14.69;71.28
8318;BME280;4196;48.926;8.964;2023-11-19T14:07:36;98778.38;;;14.56;71.90
8318;BME280;4196;48.926;8.964;2023-11-19T14:10:22;98777.38;;;14.62;67.17
8318;BME280;4196;48.926;8.964;2023-11-19T14:13:09;98787.09;;;14.55;67.82
8318;BME280;4196;48.926;8.964;2023-11-19T14:15:55;98792.44;;;14.47;68.50
8318;BME280;4196;48.926;8.964;2023-11-19T14:18:42;98728.09;;;14.12;69.11
8318;BME280;4196;48.926;8.964;2023-11-19T14:21:29;98777.03;;;14.37;69.82
8318;BME280;4196;48.926;8.964;2023-11-19T14:24:15;98776.22;;;14.35;70.18
8318;BME280;4196;48.926;8.964;2023-11-19T14:27:02;98757.34;;;14.25;70.06
8318;BME280;4196;48.926;8.964;2023-11-19T14:29:48;98765.00;;;14.31;70.28
8318;BME280;4196;48.926;8.964;2023-11-19T14:32:35;98758.25;;;14.22;70.53
8318;BME280;4196;48.926;8.964;2023-11-19T14:35:22;98758.53;;;14.10;71.32
8318;BME280;4196;48.926;8.964;2023-11-19T14:38:09;98747.34;;;14.05;70.09
8318;BME280;4196;48.926;8.964;2023-11-19T14:40:56;98764.50;;;14.15;70.85
8318;BME280;4196;48.926;8.964;2023-11-19T14:43:42;98771.34;;;14.19;71.32
8318;BME280;4196;48.926;8.964;2023-11-19T14:46:29;98773.25;;;14.11;72.00
8318;BME280;4196;48.926;8.964;2023-11-19T14:49:15;98778.72;;;13.99;73.04
8318;BME280;4196;48.926;8.964;2023-11-19T14:52:03;98773.78;;;13.87;74.49
8318;BME280;4196;48.926;8.964;2023-11-19T14:54:53;98777.16;;;13.92;74.70
8318;BME280;4196;48.926;8.964;2023-11-19T14:57:40;98779.78;;;13.90;75.46
8318;BME280;4196;48.926;8.964;2023-11-19T15:00:32;98773.03;;;13.80;75.51
8318;BME280;4196;48.926;8.964;2023-11-19T15:03:20;98774.97;;;13.70;76.98
8318;BME280;4196;48.926;8.964;2023-11-19T15:06:07;98789.66;;;13.73;76.76
8318;BME280;4196;48.926;8.964;2023-11-19T15:08:55;98777.75;;;13.61;77.22
8318;BME280;4196;48.926;8.964;2023-11-19T15:11:43;98785.88;;;13.44;77.86
8318;BME280;4196;48.926;8.964;2023-11-19T15:14:30;98788.72;;;13.31;78.39
8318;BME280;4196;48.926;8.964;2023-11-19T15:17:16;98781.03;;;13.24;79.13
8318;BME280;4196;48.926;8.964;2023-11-19T15:20:03;98784.44;;;13.29;78.34